createdAt,value
2018-10-16T00:00:35.074Z,58.93
2018-10-16T00:03:18.457Z,56.67
2018-10-16T00:05:57.154Z,62.10
2018-10-16T00:08:35.840Z,75.93
2018-10-16T00:11:17.013Z,86.00
2018-10-16T00:13:57.395Z,87.80
2018-10-16T00:16:38.733Z,96.67
2018-10-16T00:19:17.697Z,89.73
2018-10-16T00:21:56.065Z,81.00
2018-10-16T00:24:35.776Z,79.60
2018-10-16T00:27:14.799Z,71.23
2018-10-16T00:29:54.000Z,59.73
2018-10-16T00:32:33.357Z,53.20
2018-10-16T00:35:13.115Z,56.10
2018-10-16T00:37:52.480Z,50.33
2018-10-16T00:40:31.358Z,61.30
2018-10-16T00:43:10.838Z,57.70
2018-10-16T00:45:54.215Z,59.47
2018-10-16T00:48:35.074Z,57.57
2018-10-16T00:51:12.660Z,55.03
2018-10-16T00:53:52.379Z,57.13
2018-10-16T00:56:29.903Z,60.10
2018-10-16T00:59:08.776Z,60.77
2018-10-16T01:01:47.577Z,58.63
2018-10-16T01:04:27.419Z,62.53
2018-10-16T01:07:05.983Z,60.13
2018-10-16T01:09:44.922Z,57.67
2018-10-16T01:12:23.297Z,55.67
2018-10-16T01:15:06.036Z,47.00
2018-10-16T01:17:49.921Z,51.67
2018-10-16T01:20:28.283Z,46.23
2018-10-16T01:23:07.679Z,44.93
2018-10-16T01:25:46.178Z,44.70
2018-10-16T01:28:29.136Z,47.27
2018-10-16T01:31:07.558Z,44.10
2018-10-16T01:33:49.777Z,43.03
2018-10-16T01:36:28.338Z,45.53
2018-10-16T01:39:12.922Z,42.97
2018-10-16T01:41:56.952Z,43.13
2018-10-16T01:44:39.302Z,42.10
2018-10-16T01:47:22.472Z,42.00
2018-10-16T01:50:04.796Z,42.83
2018-10-16T01:52:41.868Z,42.57
2018-10-16T01:55:18.752Z,42.53
2018-10-16T01:58:01.856Z,40.10
2018-10-16T02:00:45.298Z,42.37
2018-10-16T02:03:26.852Z,42.00
2018-10-16T02:06:09.515Z,42.83
2018-10-16T02:08:48.459Z,42.43
2018-10-16T02:11:29.774Z,41.80
2018-10-16T02:14:10.579Z,41.90
2018-10-16T02:16:48.362Z,42.47
2018-10-16T02:19:26.575Z,43.47
2018-10-16T02:22:04.639Z,44.07
2018-10-16T02:24:41.555Z,44.20
2018-10-16T02:27:18.614Z,43.77
2018-10-16T02:30:02.110Z,46.80
2018-10-16T02:32:45.573Z,54.37
2018-10-16T02:35:25.894Z,62.13
2018-10-16T02:38:08.777Z,44.97
2018-10-16T02:40:47.735Z,65.67
2018-10-16T02:43:26.242Z,56.97
2018-10-16T02:46:04.844Z,67.17
2018-10-16T02:48:45.154Z,90.80
2018-10-16T02:51:24.795Z,89.43
2018-10-16T02:54:03.536Z,83.47
2018-10-16T02:56:42.006Z,85.60
2018-10-16T02:59:20.497Z,76.00
2018-10-16T03:01:59.280Z,61.70
2018-10-16T03:04:36.597Z,50.23
2018-10-16T03:07:15.957Z,54.10
2018-10-16T03:09:55.516Z,54.07
2018-10-16T03:12:34.037Z,62.63
2018-10-16T03:15:16.920Z,78.30
2018-10-16T03:17:55.661Z,67.27
2018-10-16T03:20:37.703Z,61.83
2018-10-16T03:23:16.682Z,75.93
2018-10-16T03:25:55.556Z,60.77
2018-10-16T03:28:34.957Z,71.00
2018-10-16T03:31:14.733Z,70.80
2018-10-16T03:33:57.494Z,71.97
2018-10-16T03:36:36.004Z,91.93
2018-10-16T03:39:17.599Z,102.47
2018-10-16T03:41:57.957Z,110.13
2018-10-16T03:44:37.916Z,107.33
2018-10-16T03:47:17.101Z,106.33
2018-10-16T03:49:56.379Z,108.13
2018-10-16T03:52:35.798Z,114.00
2018-10-16T03:55:17.545Z,81.23
2018-10-16T03:57:56.319Z,106.97
2018-10-16T04:00:36.118Z,102.67
2018-10-16T04:03:16.055Z,105.87
2018-10-16T04:05:54.753Z,115.97
2018-10-16T04:08:35.398Z,132.77
2018-10-16T04:11:16.344Z,174.97
2018-10-16T04:13:55.768Z,232.23
2018-10-16T04:16:34.882Z,262.40
2018-10-16T04:19:13.633Z,295.47
2018-10-16T04:21:54.119Z,297.73
2018-10-16T04:24:34.314Z,268.70
2018-10-16T04:27:12.957Z,229.17
2018-10-16T04:29:54.876Z,203.63
2018-10-16T04:32:33.570Z,152.77
2018-10-16T04:35:20.699Z,152.83
2018-10-16T04:38:00.081Z,150.70
2018-10-16T04:40:40.084Z,222.40
2018-10-16T04:43:27.473Z,285.70
2018-10-16T04:46:07.050Z,320.97
2018-10-16T04:48:46.128Z,346.23
2018-10-16T04:51:24.076Z,329.63
2018-10-16T04:54:01.269Z,310.13
2018-10-16T04:56:39.373Z,292.80
2018-10-16T04:59:19.218Z,264.43
2018-10-16T05:02:14.016Z,274.67
2018-10-16T05:04:51.299Z,286.70
2018-10-16T05:07:28.776Z,294.57
2018-10-16T05:10:14.011Z,311.33
2018-10-16T05:12:56.049Z,321.77
2018-10-16T05:15:43.556Z,317.17
2018-10-16T05:18:21.810Z,321.03
2018-10-16T05:21:03.058Z,318.47
2018-10-16T05:23:41.393Z,344.00
2018-10-16T05:26:20.696Z,345.73
2018-10-16T05:29:02.875Z,381.37
2018-10-16T05:31:44.731Z,371.63
2018-10-16T05:34:36.479Z,349.77
2018-10-16T05:37:18.655Z,298.97
2018-10-16T05:40:00.180Z,267.17
2018-10-16T05:42:43.709Z,235.63
2018-10-16T05:45:21.934Z,231.67
2018-10-16T05:48:01.220Z,255.07
2018-10-16T05:50:41.653Z,235.03
2018-10-16T05:53:20.719Z,243.07
2018-10-16T05:56:10.348Z,273.27
2018-10-16T05:59:00.233Z,298.20
2018-10-16T06:01:38.351Z,237.13
2018-10-16T06:04:17.421Z,227.53
2018-10-16T06:06:55.019Z,275.27
2018-10-16T06:09:37.213Z,309.80
2018-10-16T06:12:21.144Z,276.40
2018-10-16T06:15:08.188Z,280.47
2018-10-16T06:17:47.673Z,302.50
2018-10-16T06:20:25.196Z,244.77
2018-10-16T06:23:03.069Z,232.63
2018-10-16T06:25:40.315Z,239.20
2018-10-16T06:28:31.333Z,225.90
2018-10-16T06:31:08.733Z,182.30
2018-10-16T06:33:46.337Z,204.10
2018-10-16T06:36:24.840Z,193.67
2018-10-16T06:39:09.371Z,203.27
2018-10-16T06:41:47.069Z,227.73
2018-10-16T06:44:26.071Z,228.27
2018-10-16T06:47:03.291Z,210.43
2018-10-16T06:49:45.572Z,249.27
2018-10-16T06:52:25.555Z,261.63
2018-10-16T06:55:07.092Z,233.77
2018-10-16T06:57:52.858Z,196.17
2018-10-16T07:00:34.134Z,215.97
2018-10-16T07:03:12.533Z,181.23
2018-10-16T07:05:51.328Z,217.57
2018-10-16T07:08:30.631Z,177.13
2018-10-16T07:11:10.315Z,166.67
2018-10-16T07:13:49.354Z,185.33
2018-10-16T07:16:29.235Z,130.77
2018-10-16T07:19:07.891Z,119.27
2018-10-16T07:21:47.738Z,123.93
2018-10-16T07:24:27.857Z,100.70
2018-10-16T07:27:04.979Z,88.60
2018-10-16T07:29:45.394Z,72.97
2018-10-16T07:32:34.077Z,67.37
2018-10-16T07:35:20.613Z,62.90
2018-10-16T07:38:03.344Z,56.93
2018-10-16T07:40:45.239Z,67.47
2018-10-16T07:43:25.076Z,68.33
2018-10-16T07:46:01.641Z,64.77
2018-10-16T07:48:54.598Z,60.80
2018-10-16T07:51:37.395Z,55.50
2018-10-16T07:54:18.362Z,50.90
2018-10-16T07:57:00.075Z,82.30
2018-10-16T07:59:38.040Z,77.90
2018-10-16T08:02:15.032Z,67.97
2018-10-16T08:04:52.573Z,58.40
2018-10-16T08:07:30.992Z,58.00
2018-10-16T08:10:09.421Z,51.23
2018-10-16T08:12:46.990Z,53.70
2018-10-16T08:15:25.418Z,48.43
2018-10-16T08:18:03.552Z,53.37
2018-10-16T08:20:44.817Z,48.40
2018-10-16T08:23:24.655Z,49.43
2018-10-16T08:26:04.693Z,50.07
2018-10-16T08:28:45.898Z,47.87
2018-10-16T08:31:24.354Z,51.30
2018-10-16T08:34:06.372Z,66.50
2018-10-16T08:36:46.747Z,71.17
2018-10-16T08:39:37.092Z,62.07
2018-10-16T08:45:32.694Z,51.53
2018-10-16T08:48:24.514Z,333.87
2018-10-16T08:51:15.794Z,542.20
2018-10-16T08:53:53.971Z,549.70
2018-10-16T08:56:33.996Z,75.40
2018-10-16T08:59:14.850Z,73.03
2018-10-16T09:01:59.933Z,76.33
2018-10-16T09:04:46.299Z,58.50
2018-10-16T09:07:25.289Z,58.53
2018-10-16T09:10:03.553Z,125.47
2018-10-16T09:12:45.519Z,586.93
2018-10-16T09:15:27.575Z,813.77
2018-10-16T09:18:08.976Z,762.07
2018-10-16T09:20:46.770Z,830.70
2018-10-16T09:23:26.101Z,851.33
2018-10-16T09:26:08.236Z,843.03
2018-10-16T09:28:51.313Z,307.47
2018-10-16T09:31:27.972Z,43.83
2018-10-16T09:34:09.311Z,76.80
2018-10-16T09:36:50.757Z,68.53
2018-10-16T09:39:33.474Z,50.83
2018-10-16T09:42:11.619Z,129.73
2018-10-16T09:44:50.591Z,374.20
2018-10-16T09:47:29.372Z,614.07
2018-10-16T09:50:09.715Z,566.80
2018-10-16T09:52:51.417Z,495.83
2018-10-16T09:55:29.009Z,397.20
2018-10-16T09:58:09.977Z,307.33
2018-10-16T10:00:57.629Z,269.47
2018-10-16T10:03:50.372Z,318.73
2018-10-16T10:06:32.998Z,183.43
2018-10-16T10:09:18.212Z,330.30
2018-10-16T10:11:55.081Z,45.50
2018-10-16T10:14:33.217Z,43.30
2018-10-16T10:17:21.934Z,74.50
2018-10-16T10:20:03.630Z,77.63
2018-10-16T10:22:48.493Z,32.30
2018-10-16T10:25:34.980Z,32.90
2018-10-16T10:28:16.234Z,42.97
2018-10-16T10:30:57.376Z,35.43
2018-10-16T10:33:38.593Z,30.40
2018-10-16T10:36:17.019Z,122.23
2018-10-16T10:39:02.759Z,28.30
2018-10-16T10:41:39.931Z,131.40
2018-10-16T10:44:21.014Z,28.70
2018-10-16T10:47:01.313Z,95.83
2018-10-16T10:49:40.832Z,93.87
2018-10-16T10:52:17.693Z,31.13
2018-10-16T10:54:55.569Z,36.83
2018-10-16T10:57:34.034Z,56.00
2018-10-16T11:00:20.731Z,44.10
2018-10-16T11:02:58.476Z,38.43
2018-10-16T11:05:39.629Z,47.70
2018-10-16T11:08:23.699Z,45.30
2018-10-16T11:11:11.729Z,55.73
2018-10-16T11:13:58.211Z,77.47
2018-10-16T11:16:36.913Z,41.97
2018-10-16T11:19:14.326Z,28.53
2018-10-16T11:21:55.816Z,25.90
2018-10-16T11:24:35.471Z,33.00
2018-10-16T11:27:14.398Z,24.40
2018-10-16T11:29:51.782Z,24.40
2018-10-16T11:32:30.153Z,30.20
2018-10-16T11:35:08.071Z,38.23
2018-10-16T11:37:48.955Z,39.80
2018-10-16T11:40:32.372Z,28.23
2018-10-16T11:43:13.975Z,30.67
2018-10-16T11:45:52.912Z,27.73
2018-10-16T11:48:31.832Z,24.97
2018-10-16T11:51:15.836Z,23.87
2018-10-16T11:53:53.657Z,26.60
2018-10-16T11:56:31.855Z,28.50
2018-10-16T11:59:13.810Z,29.77
2018-10-16T12:01:53.313Z,26.53
2018-10-16T12:04:36.673Z,27.70
2018-10-16T12:07:13.769Z,34.07
2018-10-16T12:09:55.154Z,38.23
2018-10-16T12:12:36.256Z,35.37
2018-10-16T12:15:20.856Z,35.13
2018-10-16T12:18:10.156Z,24.00
2018-10-16T12:20:54.164Z,31.40
2018-10-16T12:23:35.879Z,37.63
2018-10-16T12:26:18.738Z,38.07
2018-10-16T12:28:59.053Z,23.73
2018-10-16T12:31:49.891Z,34.13
2018-10-16T12:34:27.630Z,24.43
2018-10-16T12:37:06.493Z,25.00
2018-10-16T12:39:47.375Z,29.77
2018-10-16T12:42:24.354Z,25.90
2018-10-16T12:45:04.119Z,34.33
2018-10-16T12:47:45.917Z,24.00
2018-10-16T12:50:25.641Z,29.13
2018-10-16T12:53:11.936Z,30.93
2018-10-16T12:55:49.408Z,28.60
2018-10-16T12:58:35.310Z,36.23
2018-10-16T13:01:13.519Z,46.47
2018-10-16T13:03:50.912Z,40.07
2018-10-16T13:06:29.053Z,38.13
2018-10-16T13:09:08.947Z,38.17
2018-10-16T13:11:50.719Z,38.70
2018-10-16T13:14:31.874Z,31.80
2018-10-16T13:17:14.181Z,34.93
2018-10-16T13:19:51.795Z,32.60
2018-10-16T13:22:32.513Z,27.22
2018-10-16T13:25:13.379Z,35.50
2018-10-16T13:27:51.035Z,34.17
2018-10-16T13:30:30.333Z,27.25
2018-10-16T13:33:08.134Z,28.60
2018-10-16T13:35:49.652Z,27.37
2018-10-16T13:38:36.751Z,24.43
2018-10-16T13:41:19.857Z,24.57
2018-10-16T13:43:59.890Z,23.93
2018-10-16T13:46:41.756Z,32.33
2018-10-16T13:49:20.734Z,29.13
2018-10-16T13:52:02.608Z,27.40
2018-10-16T13:54:44.939Z,29.23
2018-10-16T13:57:24.395Z,25.93
2018-10-16T14:00:01.996Z,31.13
2018-10-16T14:02:40.211Z,26.00
2018-10-16T14:05:18.302Z,27.00
2018-10-16T14:07:58.494Z,23.70
2018-10-16T14:10:40.059Z,25.63
2018-10-16T14:13:21.556Z,24.27
2018-10-16T14:16:01.246Z,24.37
2018-10-16T14:18:44.458Z,25.07
2018-10-16T14:21:25.715Z,26.07
2018-10-16T14:24:02.668Z,28.63
2018-10-16T14:26:41.176Z,30.23
2018-10-16T14:29:20.072Z,34.90
2018-10-16T14:31:59.726Z,35.10
2018-10-16T14:34:42.963Z,34.03
2018-10-16T14:37:21.657Z,30.57
2018-10-16T14:40:00.102Z,29.27
2018-10-16T14:42:43.609Z,27.90
2018-10-16T14:45:21.210Z,24.73
2018-10-16T14:48:00.977Z,28.60
2018-10-16T14:50:39.934Z,28.97
2018-10-16T14:53:20.610Z,28.17
2018-10-16T14:56:00.642Z,29.27
2018-10-16T14:58:38.630Z,38.30
2018-10-16T15:01:15.533Z,30.60
2018-10-16T15:03:56.903Z,29.20
2018-10-16T15:06:34.291Z,22.80
2018-10-16T15:09:16.711Z,24.57
2018-10-16T15:11:56.531Z,27.30
2018-10-16T15:14:34.556Z,29.30
2018-10-16T15:17:14.755Z,33.00
2018-10-16T15:19:51.951Z,25.27
2018-10-16T15:22:29.548Z,30.53
2018-10-16T15:25:13.892Z,28.60
2018-10-16T15:27:52.589Z,26.83
2018-10-16T15:30:29.668Z,22.97
2018-10-16T15:33:19.711Z,33.23
2018-10-16T15:36:03.985Z,20.50
2018-10-16T15:38:53.033Z,22.67
2018-10-16T15:41:31.434Z,20.97
2018-10-16T15:44:15.606Z,20.17
2018-10-16T15:46:58.311Z,20.33
2018-10-16T15:49:35.590Z,20.07
2018-10-16T15:52:14.372Z,20.47
2018-10-16T15:54:51.852Z,19.87
2018-10-16T15:57:30.715Z,19.83
2018-10-16T16:00:17.009Z,20.40
2018-10-16T16:02:59.729Z,19.60
2018-10-16T16:05:37.373Z,20.60
2018-10-16T16:08:19.018Z,20.73
2018-10-16T16:10:56.176Z,21.97
2018-10-16T16:13:37.350Z,25.67
2018-10-16T16:16:16.753Z,25.60
2018-10-16T16:18:57.294Z,25.20
2018-10-16T16:21:38.973Z,24.93
2018-10-16T16:24:23.895Z,23.43
2018-10-16T16:27:03.253Z,21.97
2018-10-16T16:29:44.138Z,21.00
2018-10-16T16:32:23.430Z,39.23
2018-10-16T16:35:00.639Z,60.40
2018-10-16T16:37:39.013Z,62.00
2018-10-16T16:40:21.211Z,82.23
2018-10-16T16:43:01.092Z,99.30
2018-10-16T16:45:41.353Z,139.47
2018-10-16T16:48:20.473Z,170.17
2018-10-16T16:51:00.048Z,167.33
2018-10-16T16:53:39.930Z,159.03
2018-10-16T16:56:20.670Z,92.63
2018-10-16T16:59:00.184Z,47.30
2018-10-16T17:01:44.875Z,26.20
2018-10-16T17:04:21.458Z,28.63
2018-10-16T17:07:03.057Z,38.03
2018-10-16T17:09:42.659Z,57.60
2018-10-16T17:12:21.992Z,90.90
2018-10-16T17:15:01.698Z,139.67
2018-10-16T17:17:40.070Z,207.57
2018-10-16T17:20:21.060Z,314.73
2018-10-16T17:23:07.111Z,377.43
2018-10-16T17:25:58.694Z,508.63
2018-10-16T17:28:39.880Z,622.87
2018-10-16T17:31:21.055Z,599.33
2018-10-16T17:34:03.140Z,635.13
2018-10-16T17:36:47.574Z,667.17
2018-10-16T17:39:28.470Z,743.97
2018-10-16T17:42:08.296Z,716.53
2018-10-16T17:44:50.136Z,590.07
2018-10-16T17:47:29.142Z,647.10
2018-10-16T17:50:09.092Z,470.60
2018-10-16T17:52:50.392Z,480.53
2018-10-16T17:55:28.418Z,373.43
2018-10-16T17:58:06.337Z,187.53
2018-10-16T18:00:48.121Z,167.30
2018-10-16T18:03:25.509Z,103.73
2018-10-16T18:06:06.177Z,97.23
2018-10-16T18:08:43.871Z,75.10
2018-10-16T18:11:23.732Z,71.00
2018-10-16T18:14:01.131Z,98.33
2018-10-16T18:16:40.617Z,96.40
2018-10-16T18:19:21.993Z,110.07
2018-10-16T18:22:01.709Z,119.00
2018-10-16T18:24:39.695Z,135.30
2018-10-16T18:27:21.772Z,96.27
2018-10-16T18:30:04.153Z,134.60
2018-10-16T18:32:43.978Z,105.80
2018-10-16T18:35:22.635Z,119.27
2018-10-16T18:38:07.590Z,145.63
2018-10-16T18:40:48.238Z,176.00
2018-10-16T18:43:29.427Z,184.53
2018-10-16T18:46:08.372Z,147.37
2018-10-16T18:48:46.733Z,120.47
2018-10-16T18:51:25.452Z,118.93
2018-10-16T18:54:06.415Z,106.87
2018-10-16T18:56:46.733Z,79.23
2018-10-16T18:59:24.516Z,63.17
2018-10-16T19:02:03.715Z,48.07
2018-10-16T19:04:45.972Z,39.50
2018-10-16T19:07:27.088Z,36.63
2018-10-16T19:10:05.192Z,40.03
2018-10-16T19:12:49.798Z,55.60
2018-10-16T19:15:32.132Z,72.87
2018-10-16T19:18:12.953Z,78.17
2018-10-16T19:20:53.360Z,116.60
2018-10-16T19:23:33.973Z,157.47
2018-10-16T19:26:18.758Z,164.67
2018-10-16T19:28:59.292Z,324.47
2018-10-16T19:31:42.076Z,336.03
2018-10-16T19:34:22.794Z,413.70
2018-10-16T19:37:00.595Z,480.40
2018-10-16T19:39:38.612Z,503.87
2018-10-16T19:42:16.518Z,594.30
2018-10-16T19:44:56.060Z,666.77
2018-10-16T19:47:33.676Z,668.23
2018-10-16T19:50:16.653Z,684.07
2018-10-16T19:52:58.857Z,679.33
2018-10-16T19:55:40.279Z,681.20
2018-10-16T19:58:19.392Z,737.33
2018-10-16T20:01:01.535Z,736.37
2018-10-16T20:03:40.813Z,670.50
2018-10-16T20:06:22.318Z,674.97
2018-10-16T20:09:01.206Z,688.83
2018-10-16T20:11:42.117Z,683.67
2018-10-16T20:14:23.158Z,650.27
2018-10-16T20:17:03.793Z,585.63
2018-10-16T20:19:44.231Z,579.20
2018-10-16T20:22:24.556Z,528.10
2018-10-16T20:25:02.274Z,493.47
2018-10-16T20:27:42.995Z,453.60
2018-10-16T20:30:22.051Z,388.90
2018-10-16T20:33:01.894Z,264.93
2018-10-16T20:35:42.056Z,177.97
2018-10-16T20:38:22.137Z,174.33
2018-10-16T20:41:00.934Z,146.40
2018-10-16T20:43:40.912Z,119.27
2018-10-16T20:46:19.571Z,139.90
2018-10-16T20:48:58.463Z,149.27
2018-10-16T20:51:37.275Z,138.80
2018-10-16T20:54:16.949Z,102.83
2018-10-16T20:56:56.896Z,106.37
2018-10-16T20:59:35.933Z,130.23
2018-10-16T21:02:14.130Z,133.20
2018-10-16T21:04:55.219Z,135.73
2018-10-16T21:07:35.058Z,142.97
2018-10-16T21:10:14.352Z,138.10
2018-10-16T21:12:52.643Z,144.33
2018-10-16T21:15:31.442Z,160.60
2018-10-16T21:18:10.316Z,183.83
2018-10-16T21:20:48.658Z,181.67
2018-10-16T21:23:26.969Z,197.40
2018-10-16T21:26:05.874Z,261.13
2018-10-16T21:28:47.368Z,302.20
2018-10-16T21:31:26.338Z,324.60
2018-10-16T21:34:08.253Z,367.33
2018-10-16T21:36:46.770Z,388.87
2018-10-16T21:39:25.078Z,429.83
2018-10-16T21:42:03.654Z,431.97
2018-10-16T21:44:42.453Z,484.77
2018-10-16T21:47:22.393Z,468.80
2018-10-16T21:49:59.130Z,481.80
2018-10-16T21:52:38.634Z,525.00
2018-10-16T21:55:17.692Z,507.10
2018-10-16T21:57:55.093Z,507.73
2018-10-16T22:00:40.356Z,510.60
2018-10-16T22:03:20.130Z,507.13
2018-10-16T22:06:00.830Z,486.77
2018-10-16T22:08:39.254Z,483.87
2018-10-16T22:11:17.891Z,460.23
2018-10-16T22:13:58.012Z,450.53
2018-10-16T22:16:36.989Z,439.10
2018-10-16T22:19:16.826Z,433.47
2018-10-16T22:21:56.791Z,410.23
2018-10-16T22:24:36.454Z,415.73
2018-10-16T22:27:14.978Z,384.67
2018-10-16T22:29:53.512Z,374.20
2018-10-16T22:32:32.832Z,347.80
2018-10-16T22:35:14.696Z,321.97
2018-10-16T22:37:53.875Z,290.93
2018-10-16T22:40:32.411Z,270.60
2018-10-16T22:43:11.232Z,265.33
2018-10-16T22:45:50.450Z,230.33
2018-10-16T22:48:29.789Z,218.87
2018-10-16T22:51:09.058Z,189.93
2018-10-16T22:53:48.936Z,148.43
2018-10-16T22:56:27.431Z,131.53
2018-10-16T22:59:06.220Z,87.73
2018-10-16T23:01:44.889Z,55.00
2018-10-16T23:04:27.191Z,52.80
2018-10-16T23:07:07.970Z,54.87
2018-10-16T23:09:50.614Z,55.60
2018-10-16T23:12:28.134Z,53.87
2018-10-16T23:15:08.551Z,53.17
2018-10-16T23:17:48.317Z,53.43
2018-10-16T23:20:29.710Z,52.13
2018-10-16T23:23:12.760Z,54.53
2018-10-16T23:25:52.193Z,50.13
2018-10-16T23:28:31.033Z,50.17
2018-10-16T23:31:11.425Z,47.50
2018-10-16T23:33:51.480Z,45.97
2018-10-16T23:36:30.691Z,51.00
2018-10-16T23:39:09.627Z,50.30
2018-10-16T23:41:47.651Z,52.93
2018-10-16T23:44:28.891Z,52.10
2018-10-16T23:47:08.271Z,56.43
2018-10-16T23:49:47.254Z,71.37
2018-10-16T23:52:28.050Z,75.70
2018-10-16T23:55:06.849Z,85.00
2018-10-16T23:57:45.632Z,91.53
